Time,TemperatureF,DewpointF,PressureIn,WindDirection,WindDirectionDegrees,WindSpeedMPH,WindSpeedGustMPH,Humidity,HourlyPrecipIn,Conditions,Clouds,dailyrainin,SolarRadiationWatts/m^2,SoftwareType,DateUTC
2013-05-04 00:11:00,44.0,16.0,-100.00,North,1,0.0,0.0,32,-99.99,,,-99.99,0.000000,,2013-05-04 07:11:00,
2013-05-04 00:21:00,44.0,16.0,-100.00,North,1,0.0,0.0,32,-99.99,,,-99.99,0.000000,,2013-05-04 07:21:00,
2013-05-04 00:52:00,43.0,15.0,-100.00,North,4,0.0,0.0,32,-99.99,,,-99.99,0.000000,,2013-05-04 07:52:00,
2013-05-04 01:11:00,43.0,15.0,-100.00,North,4,0.0,0.0,32,-99.99,,,-99.99,0.000000,,2013-05-04 08:11:00,
2013-05-04 01:31:00,43.0,16.0,-100.00,NNE,15,0.0,1.0,33,-99.99,,,-99.99,0.000000,,2013-05-04 08:31:00,
2013-05-04 01:40:00,43.0,15.0,-100.00,NNE,23,0.0,1.0,33,-99.99,,,-99.99,0.000000,,2013-05-04 08:40:00,
2013-05-04 02:11:00,43.0,15.0,-100.00,NNE,23,0.0,1.0,33,-99.99,,,-99.99,0.000000,,2013-05-04 09:11:00,
2013-05-04 02:20:00,42.0,15.0,-100.00,NNE,25,0.0,0.0,32,-99.99,,,-99.99,0.000000,,2013-05-04 09:20:00,
2013-05-04 02:21:00,43.0,15.0,-100.00,NNE,23,0.0,1.0,33,-99.99,,,-99.99,0.000000,,2013-05-04 09:21:00,
2013-05-04 02:32:00,43.0,15.0,-100.00,NNE,23,0.0,1.0,33,-99.99,,,-99.99,0.000000,,2013-05-04 09:32:00,
2013-05-04 03:02:00,42.0,15.0,-100.00,NNE,25,0.0,0.0,32,-99.99,,,-99.99,0.000000,,2013-05-04 10:02:00,
2013-05-04 03:40:00,41.0,15.0,-100.00,NNE,19,0.0,1.0,34,-99.99,,,-99.99,0.000000,,2013-05-04 10:40:00,
2013-05-04 04:11:00,41.0,15.0,-100.00,NNE,19,0.0,1.0,34,-99.99,,,-99.99,0.000000,,2013-05-04 11:11:00,
2013-05-04 04:20:00,41.0,16.0,-100.00,NNE,30,0.0,1.0,36,-99.99,,,-99.99,0.000000,,2013-05-04 11:20:00,
2013-05-04 04:21:00,41.0,15.0,-100.00,NNE,19,0.0,1.0,34,-99.99,,,-99.99,0.000000,,2013-05-04 11:21:00,
2013-05-04 04:32:00,41.0,15.0,-100.00,NNE,19,0.0,1.0,34,-99.99,,,-99.99,0.000000,,2013-05-04 11:32:00,
2013-05-04 05:00:00,41.0,16.0,-100.00,NNE,19,0.0,1.0,36,-99.99,,,-99.99,0.000000,,2013-05-04 12:00:00,
2013-05-04 05:04:00,41.0,16.0,-100.00,NNE,30,0.0,1.0,36,-99.99,,,-99.99,0.000000,,2013-05-04 12:04:00,
2013-05-04 05:13:00,41.0,16.0,-100.00,NNE,30,0.0,1.0,36,-99.99,,,-99.99,0.000000,,2013-05-04 12:13:00,
2013-05-04 05:35:00,41.0,16.0,-100.00,NNE,19,0.0,1.0,36,-99.99,,,-99.99,0.000000,,2013-05-04 12:35:00,
2013-05-04 05:42:00,41.0,16.0,-100.00,NNE,19,0.0,1.0,36,-99.99,,,-99.99,0.000000,,2013-05-04 12:42:00,
2013-05-04 05:51:00,41.0,16.0,-100.00,NNE,19,0.0,1.0,36,-99.99,,,-99.99,0.000000,,2013-05-04 12:51:00,
2013-05-04 06:11:00,40.0,16.0,-100.00,NNE,25,0.0,1.0,38,-99.99,,,-99.99,0.000000,,2013-05-04 13:11:00,
2013-05-04 06:20:00,40.0,16.0,-100.00,North,11,0.0,0.0,38,-99.99,,,-99.99,10.000000,,2013-05-04 13:20:00,
2013-05-04 06:21:00,40.0,16.0,-100.00,NNE,25,0.0,1.0,38,-99.99,,,-99.99,0.000000,,2013-05-04 13:21:00,
2013-05-04 06:32:00,40.0,16.0,-100.00,NNE,25,0.0,1.0,38,-99.99,,,-99.99,0.000000,,2013-05-04 13:32:00,
2013-05-04 06:52:00,40.0,16.0,-100.00,North,11,0.0,0.0,38,-99.99,,,-99.99,10.000000,,2013-05-04 13:52:00,
2013-05-04 07:11:00,40.0,16.0,-100.00,North,11,0.0,0.0,38,-99.99,,,-99.99,10.000000,,2013-05-04 14:11:00,
2013-05-04 07:32:00,40.0,18.0,-100.00,NE,39,0.0,0.0,40,-99.99,,,-99.99,20.000000,,2013-05-04 14:32:00,
2013-05-04 07:41:00,40.0,18.0,-100.00,NE,39,0.0,0.0,40,-99.99,,,-99.99,20.000000,,2013-05-04 14:41:00,
2013-05-04 07:51:00,40.0,18.0,-100.00,NE,39,0.0,0.0,40,-99.99,,,-99.99,20.000000,,2013-05-04 14:51:00,
2013-05-04 08:21:00,42.0,23.0,-100.00,NE,49,1.0,1.0,46,-99.99,,,-99.99,40.000000,,2013-05-04 15:21:00,
2013-05-04 09:33:00,53.0,26.0,-100.00,ENE,61,0.0,1.0,35,-99.99,,,-99.99,610.000000,,2013-05-04 16:33:00,
2013-05-04 10:12:00,59.0,14.0,-100.00,SSE,154,1.0,2.0,17,-99.99,,,-99.99,730.000000,,2013-05-04 17:12:00,
2013-05-04 10:20:00,61.0,13.0,-100.00,SW,227,1.0,3.0,15,-99.99,,,-99.99,870.000000,,2013-05-04 17:20:00,
2013-05-04 10:22:00,59.0,14.0,-100.00,SSE,154,1.0,2.0,17,-99.99,,,-99.99,730.000000,,2013-05-04 17:22:00,
2013-05-04 10:52:00,61.0,13.0,-100.00,SW,227,1.0,3.0,15,-99.99,,,-99.99,870.000000,,2013-05-04 17:52:00,
2013-05-04 11:01:00,61.0,13.0,-100.00,SW,227,1.0,3.0,15,-99.99,,,-99.99,870.000000,,2013-05-04 18:01:00,
2013-05-04 11:12:00,61.0,13.0,-100.00,SW,227,1.0,3.0,15,-99.99,,,-99.99,870.000000,,2013-05-04 18:12:00,
2013-05-04 12:21:00,62.0,13.0,-100.00,SSE,148,1.0,2.0,14,-99.99,,,-99.99,1010.000000,,2013-05-04 19:21:00,
2013-05-04 13:02:00,63.0,15.0,-100.00,SSW,206,1.0,3.0,15,-99.99,,,-99.99,1070.000000,,2013-05-04 20:02:00,
2013-05-04 13:32:00,65.0,13.0,-100.00,South,173,1.0,4.0,13,-99.99,,,-99.99,1100.000000,,2013-05-04 20:32:00,
2013-05-04 13:40:00,66.0,14.0,-100.00,WSW,251,1.0,3.0,13,-99.99,,,-99.99,1050.000000,,2013-05-04 20:40:00,
2013-05-04 13:42:00,65.0,13.0,-100.00,South,173,1.0,4.0,13,-99.99,,,-99.99,1100.000000,,2013-05-04 20:42:00,
2013-05-04 13:51:00,65.0,13.0,-100.00,South,173,1.0,4.0,13,-99.99,,,-99.99,1100.000000,,2013-05-04 20:51:00,
2013-05-04 14:11:00,66.0,14.0,-100.00,WSW,251,1.0,3.0,13,-99.99,,,-99.99,1050.000000,,2013-05-04 21:11:00,
2013-05-04 14:20:00,65.0,17.0,-100.00,SE,139,1.0,3.0,15,-99.99,,,-99.99,950.000000,,2013-05-04 21:20:00,
2013-05-04 14:22:00,66.0,14.0,-100.00,WSW,251,1.0,3.0,13,-99.99,,,-99.99,1050.000000,,2013-05-04 21:22:00,
2013-05-04 14:33:00,66.0,14.0,-100.00,WSW,251,1.0,3.0,13,-99.99,,,-99.99,1050.000000,,2013-05-04 21:33:00,
2013-05-04 14:52:00,65.0,17.0,-100.00,SE,139,1.0,3.0,15,-99.99,,,-99.99,950.000000,,2013-05-04 21:52:00,
2013-05-04 15:12:00,65.0,17.0,-100.00,SE,139,1.0,3.0,15,-99.99,,,-99.99,950.000000,,2013-05-04 22:12:00,
2013-05-04 15:33:00,64.0,30.0,-100.00,SSE,159,2.0,5.0,28,-99.99,,,-99.99,900.000000,,2013-05-04 22:33:00,
2013-05-04 16:11:00,62.0,24.0,-100.00,SSE,162,1.0,3.0,23,-99.99,,,-99.99,110.000000,,2013-05-04 23:11:00,
2013-05-04 16:21:00,62.0,24.0,-100.00,SSE,162,1.0,3.0,23,-99.99,,,-99.99,110.000000,,2013-05-04 23:21:00,
2013-05-04 16:52:00,59.0,31.0,-100.00,NE,38,1.0,2.0,34,-99.99,,,-99.99,120.000000,,2013-05-04 23:52:00,
2013-05-04 17:00:00,58.0,37.0,-100.00,ESE,112,1.0,2.0,44,-99.99,,,-99.99,180.000000,,2013-05-05 00:00:00,
2013-05-04 17:31:00,58.0,37.0,-100.00,ESE,112,1.0,2.0,44,-99.99,,,-99.99,180.000000,,2013-05-05 00:31:00,
2013-05-04 17:40:00,57.0,35.0,-100.00,NW,320,1.0,2.0,43,-99.99,,,-99.99,70.000000,,2013-05-05 00:40:00,
2013-05-04 18:20:00,56.0,35.0,-100.00,South,186,1.0,1.0,45,-99.99,,,-99.99,50.000000,,2013-05-05 01:20:00,
2013-05-04 18:21:00,57.0,35.0,-100.00,NW,320,1.0,2.0,43,-99.99,,,-99.99,70.000000,,2013-05-05 01:21:00,
2013-05-04 18:32:00,57.0,35.0,-100.00,NW,320,1.0,2.0,43,-99.99,,,-99.99,70.000000,,2013-05-05 01:32:00,
2013-05-04 19:00:00,53.0,39.0,-100.00,WSW,240,0.0,1.0,57,-99.99,,,-99.99,10.000000,,2013-05-05 02:00:00,
2013-05-04 19:11:00,56.0,35.0,-100.00,South,186,1.0,1.0,45,-99.99,,,-99.99,50.000000,,2013-05-05 02:11:00,
2013-05-04 19:40:00,51.0,35.0,-100.00,East,95,0.0,1.0,54,-99.99,,,-99.99,0.000000,,2013-05-05 02:40:00,
2013-05-04 19:42:00,53.0,39.0,-100.00,WSW,240,0.0,1.0,57,-99.99,,,-99.99,10.000000,,2013-05-05 02:42:00,
2013-05-04 19:52:00,53.0,39.0,-100.00,WSW,240,0.0,1.0,57,-99.99,,,-99.99,10.000000,,2013-05-05 02:52:00,
2013-05-04 20:20:00,47.0,32.0,-100.00,East,83,1.0,1.0,56,-99.99,,,-99.99,0.000000,,2013-05-05 03:20:00,
2013-05-04 21:00:00,46.0,32.0,-100.00,NE,56,1.0,2.0,57,-99.99,,,-99.99,0.000000,,2013-05-05 04:00:00,
2013-05-04 21:02:00,47.0,32.0,-100.00,East,83,1.0,1.0,56,-99.99,,,-99.99,0.000000,,2013-05-05 04:02:00,
2013-05-04 21:12:00,47.0,32.0,-100.00,East,83,1.0,1.0,56,-99.99,,,-99.99,0.000000,,2013-05-05 04:12:00,
2013-05-04 21:32:00,46.0,32.0,-100.00,NE,56,1.0,2.0,57,-99.99,,,-99.99,0.000000,,2013-05-05 04:32:00,
2013-05-04 21:40:00,44.0,29.0,-100.00,NNE,26,0.0,1.0,57,-99.99,,,-99.99,0.000000,,2013-05-05 04:40:00,
2013-05-04 21:43:00,46.0,32.0,-100.00,NE,56,1.0,2.0,57,-99.99,,,-99.99,0.000000,,2013-05-05 04:43:00,
2013-05-04 21:52:00,46.0,32.0,-100.00,NE,56,1.0,2.0,57,-99.99,,,-99.99,0.000000,,2013-05-05 04:52:00,
2013-05-04 22:20:00,42.0,27.0,-100.00,North,10,0.0,1.0,56,-99.99,,,-99.99,0.000000,,2013-05-05 05:20:00,
2013-05-04 22:21:00,44.0,29.0,-100.00,NNE,26,0.0,1.0,57,-99.99,,,-99.99,0.000000,,2013-05-05 05:21:00,
2013-05-04 22:31:00,44.0,29.0,-100.00,NNE,26,0.0,1.0,57,-99.99,,,-99.99,0.000000,,2013-05-05 05:31:00,
2013-05-04 22:51:00,42.0,27.0,-100.00,North,10,0.0,1.0,56,-99.99,,,-99.99,0.000000,,2013-05-05 05:51:00,
2013-05-04 23:00:00,41.0,24.0,-100.00,NNE,26,1.0,2.0,51,-99.99,,,-99.99,0.000000,,2013-05-05 06:00:00,
2013-05-04 23:01:00,42.0,27.0,-100.00,North,10,0.0,1.0,56,-99.99,,,-99.99,0.000000,,2013-05-05 06:01:00,
2013-05-04 23:11:00,42.0,27.0,-100.00,North,10,0.0,1.0,56,-99.99,,,-99.99,0.000000,,2013-05-05 06:11:00,
2013-05-04 23:40:00,41.0,22.0,-100.00,NNE,26,1.0,1.0,48,-99.99,,,-99.99,0.000000,,2013-05-05 06:40:00,
2013-05-04 23:42:00,41.0,24.0,-100.00,NNE,26,1.0,2.0,51,-99.99,,,-99.99,0.000000,,2013-05-05 06:42:00,
2013-05-04 23:51:00,41.0,24.0,-100.00,NNE,26,1.0,2.0,51,-99.99,,,-99.99,0.000000,,2013-05-05 06:51:00,